• Join FlightAware (Why Join?)
  • Login
  • US Flag 
10:24PM EDT


 

Airport Tracker/Info


-or-


 

Live Flight TrackerFlight Track Log ✈ FIV521 ✈ 16-Apr-2013 ✈ KGSO - KPHL

Flight Track Log - Related Links

Times and Time Zones

All times are in EDT time to prevent confusion due to time zone crossing. See the FIV521 flight status page for this flight to view local times or setup timezone preferences in your user account.

Time Position Orientation Groundspeed Altitude Reporting Facility
EDT Latitude Longitude Course Direction KTS MPH feet Rate Location/Type
03:04PM 35.9942 -79.8664 43° Northeast 292 336 10,000  Level Washington Center
03:05PM 36.0856 -79.8225 21° North 315 362 10,000  Level Washington Center
03:06PM 36.1689 -79.7628 30° Northeast 333 383 10,000 480 Level Washington Center
03:07PM 36.2247 -79.6603 56° Northeast 349 402 11,000 1,560 Climbing Washington Center
03:08PM 36.4340 -79.5540 43° Northeast  Level Estimated
03:08PM 36.2822 -79.5628 54° Northeast 349 402 13,200  Level Washington Center
03:09PM 36.5004 -79.4761 43° Northeast  Level Estimated
03:09PM 36.3356 -79.4647 56° Northeast 344 396 15,900  Level Washington Center
03:10PM 36.3931 -79.3619 55° Northeast 344 396 17,900 2,100 Climbing Washington Center
03:11PM 36.4583 -79.2694 49° Northeast 337 388 20,100 2,040 Climbing Washington Center
03:12PM 36.5297 -79.1875 43° Northeast 363 418 22,000 1,620 Climbing Washington Center
03:13PM 36.6183 -79.0908 41° Northeast 379 436 23,400 960 Climbing Washington Center
03:14PM 36.6919 -78.9931 47° Northeast 397 457 24,000 1,020 Climbing Washington Center
03:15PM 36.7811 -78.8672 48° Northeast 426 490 25,500 1,680 Climbing Washington Center
03:16PM 36.8611 -78.7617 47° Northeast 432 497 27,400 1,860 Climbing Washington Center
03:17PM 36.9369 -78.6556 48° Northeast 421 484 29,300 1,800 Climbing Washington Center
03:18PM 37.0058 -78.5619 47° Northeast 415 478 31,000 840 Climbing Washington Center
03:19PM 37.0881 -78.4481 48° Northeast 415 478 31,000  Level Washington Center
03:20PM 37.1700 -78.3339 48° Northeast 429 494 31,000  Level Washington Center
03:21PM 37.2561 -78.2169 47° Northeast 441 507 31,000  Level Washington Center
03:22PM 37.3442 -78.0892 49° Northeast 448 516 31,000  Level Washington Center
03:23PM 37.4281 -77.9717 48° Northeast 448 516 31,000  Level Washington Center
03:24PM 37.5139 -77.8514 48° Northeast 453 521 31,000  Level Washington Center
03:25PM 37.6094 -77.7519 39° Northeast 448 516 31,000  Level Washington Center
03:26PM 37.7111 -77.6603 35° Northeast 441 507 31,000  Level Washington Center
03:27PM 37.8128 -77.5711 35° Northeast 441 507 31,000  Level Washington Center
03:28PM 37.9144 -77.4764 36° Northeast 441 507 31,000  Level Washington Center
03:29PM 38.0158 -77.3867 35° Northeast 441 507 31,000  Level Washington Center
03:30PM 38.1175 -77.2914 36° Northeast 455 524 31,000  Level Washington Center
03:31PM 38.2103 -77.2064 36° Northeast 449 517 31,000  Level Washington Center
03:32PM 38.3181 -77.1081 36° Northeast 449 517 31,000 -600 Level Washington Center
03:33PM 38.4172 -77.0119 37° Northeast 449 517 29,800 -3,540 Descending Washington Center
03:34PM 38.5161 -76.9211 36° Northeast 443 510 24,000 -2,940 Descending Washington Center
03:35PM 38.6172 -76.8297 35° Northeast 443 510 24,000  Level Washington Center
03:36PM 38.7036 -76.7275 43° Northeast 433 498 24,100 -300 Climbing Washington Center
03:37PM 38.7406 -76.5792 72° East 421 484 23,500 -1,440 Descending Washington Center
03:38PM 38.7686 -76.4356 76° East 403 464 21,300 -2,280 Descending Washington Center
03:39PM 38.7986 -76.2922 75° East 411 473 19,000 -2,040 Descending Washington Center
03:40PM 38.8203 -76.1831 76° East 411 473 17,300 -1,980 Descending Washington Center
03:41PM 38.8519 -76.0314 75° East 398 458 15,100 -1,200 Descending Washington Center
03:42PM 38.8817 -75.9089 73° East 378 435 15,000 -900 Descending Washington Center
03:44PM 39.0217 -75.7714 37° Northeast 353 406 12,700 -1,440 Descending FAA TRACON SMA TRACON (SMA)
03:44PM 39.0514 -75.7589 18° North 351 404 12,100 -1,800 Descending FAA TRACON SMA TRACON (SMA)
03:44PM 39.0803 -75.7472 17° North 348 400 11,500 -2,100 Descending FAA TRACON SMA TRACON (SMA)
03:45PM 39.1147 -75.7314 20° North 344 396 10,700 -1,920 Descending FAA TRACON SMA TRACON (SMA)
03:45PM 39.1422 -75.7186 20° North 343 395 10,200 -900 Descending FAA TRACON SMA TRACON (SMA)
03:45PM 39.1700 -75.7058 20° North 343 395 10,100 -360 Descending FAA TRACON SMA TRACON (SMA)
03:46PM 39.2042 -75.6867 23° Northeast 366 421 10,000 -180 Descending FAA TRACON SMA TRACON (SMA)
03:46PM 39.2292 -75.6636 36° Northeast 360 414 10,000  Level FAA TRACON SMA TRACON (SMA)
03:46PM 39.2528 -75.6392 39° Northeast 354 407 10,000  Level FAA TRACON SMA TRACON (SMA)
03:47PM 39.2822 -75.6083 39° Northeast 354 407 10,000  Level FAA TRACON SMA TRACON (SMA)
03:47PM 39.3031 -75.5833 43° Northeast 352 405 10,000 -480 Level FAA TRACON SMA TRACON (SMA)
03:47PM 39.3261 -75.5628 35° Northeast 307 353 9,700 -1,560 Descending FAA TRACON SMA TRACON (SMA)
03:48PM 39.3519 -75.5361 39° Northeast 306 352 9,000 -2,100 Descending FAA TRACON SMA TRACON (SMA)
03:48PM 39.3722 -75.5161 37° Northeast 306 352 8,300 -1,980 Descending FAA TRACON SMA TRACON (SMA)
03:48PM 39.3925 -75.4947 39° Northeast 302 348 7,700 -1,980 Descending FAA TRACON SMA TRACON (SMA)
03:49PM 39.4164 -75.4694 39° Northeast 298 343 7,000 -1,920 Descending FAA TRACON SMA TRACON (SMA)
03:49PM 39.4367 -75.4494 37° Northeast 298 343 6,400 -1,980 Descending FAA TRACON SMA TRACON (SMA)
03:49PM 39.4583 -75.4297 35° Northeast 299 344 5,700 -2,340 Descending FAA TRACON SMA TRACON (SMA)
03:50PM 39.4842 -75.4058 36° Northeast 298 343 4,900 -2,100 Descending FAA TRACON SMA TRACON (SMA)
03:50PM 39.5053 -75.3872 34° Northeast 297 342 4,300 -1,200 Descending FAA TRACON SMA TRACON (SMA)
03:50PM 39.5261 -75.3675 36° Northeast 293 337 4,100 -480 Descending FAA TRACON SMA TRACON (SMA)
03:51PM 39.5508 -75.3478 32° Northeast 289 333 4,000  Descending FAA TRACON SMA TRACON (SMA)
03:51PM 39.5708 -75.3289 36° Northeast 287 330 4,100  Climbing FAA TRACON SMA TRACON (SMA)
03:51PM 39.5911 -75.3106 35° Northeast 289 333 4,000 -180 Descending FAA TRACON SMA TRACON (SMA)
03:52PM 39.6169 -75.2869 35° Northeast 293 337 4,000  Level FAA TRACON SMA TRACON (SMA)
03:52PM 39.6375 -75.2681 35° Northeast 294 338 4,000  Level FAA TRACON SMA TRACON (SMA)
03:52PM 39.6564 -75.2503 36° Northeast 294 338 4,000  Level FAA TRACON SMA TRACON (SMA)
03:53PM 39.6833 -75.2247 36° Northeast 295 339 4,000  Level FAA TRACON SMA TRACON (SMA)
03:53PM 39.7036 -75.2053 36° Northeast 296 341 4,000  Level FAA TRACON SMA TRACON (SMA)
03:53PM 39.7236 -75.1861 36° Northeast 294 338 4,000  Level FAA TRACON SMA TRACON (SMA)
03:54PM 39.7456 -75.1658 35° Northeast 293 337 4,000  Level FAA TRACON SMA TRACON (SMA)
03:54PM 39.7678 -75.1431 38° Northeast 292 336 4,000  Level FAA TRACON SMA TRACON (SMA)
03:54PM 39.7858 -75.1275 34° Northeast 233 268 4,000 -180 Level FAA TRACON SMA TRACON (SMA)
03:55PM 39.8031 -75.1108 37° Northeast 212 244 3,900 -780 Descending FAA TRACON SMA TRACON (SMA)
03:55PM 39.8194 -75.0953 36° Northeast 215 247 3,500 -1,200 Descending FAA TRACON SMA TRACON (SMA)
03:55PM 39.8372 -75.0794 34° Northeast 211 243 3,100 -600 Descending FAA TRACON SMA TRACON (SMA)
03:56PM 39.8556 -75.0747 11° North 221 254 3,100 -300 Level FAA TRACON SMA TRACON (SMA)
03:56PM 39.8725 -75.0714 North 199 229 2,900 -1,080 Descending FAA TRACON SMA TRACON (SMA)
03:56PM 39.8936 -75.0722 358° North 188 216 2,400 -900 Descending FAA TRACON SMA TRACON (SMA)
03:57PM 39.9022 -75.1019 291° West 152 175 2,000 -600 Descending FAA TRACON SMA TRACON (SMA)
03:57PM 39.9011 -75.1217 266° West 132 152 1,800 -600 Descending FAA TRACON SMA TRACON (SMA)
03:58PM 39.8989 -75.1347 257° West 123 142 1,600 -600 Descending FAA TRACON SMA TRACON (SMA)
03:58PM 39.8964 -75.1467 255° West 119 137 1,400 -780 Descending FAA TRACON SMA TRACON (SMA)
03:58PM 39.8925 -75.1625 252° West 116 133 1,100 -780 Descending FAA TRACON SMA TRACON (SMA)
03:59PM 39.8897 -75.1744 253° West 114 131 900 -780 Descending FAA TRACON SMA TRACON (SMA)
03:59PM 39.8872 -75.1861 254° West 111 128 600 -900 Descending FAA TRACON SMA TRACON (SMA)
03:59PM 39.8839 -75.2022 255° West 125 144 300 -600 Descending FAA TRACON SMA TRACON (SMA)
04:00PM 39.8828 -75.2083 257° West 115 132 200 -180 Descending FAA TRACON SMA TRACON (SMA)
04:00PM 39.8828 -75.2083 229° Southwest 115 132 200  Level FAA TRACON SMA TRACON (SMA)
04:02PM 39.8667 -75.2333 270° West  Level FlightAware Approximate